createdAt,value
2018-09-19T00:00:24.450Z,18.50
2018-09-19T00:02:52.686Z,18.50
2018-09-19T00:05:20.925Z,18.50
2018-09-19T00:07:49.899Z,18.50
2018-09-19T00:10:18.159Z,18.50
2018-09-19T00:12:46.402Z,18.40
2018-09-19T00:15:14.614Z,18.40
2018-09-19T00:17:42.902Z,18.40
2018-09-19T00:20:11.234Z,18.40
2018-09-19T00:22:39.400Z,18.30
2018-09-19T00:25:07.603Z,18.30
2018-09-19T00:27:35.820Z,18.30
2018-09-19T00:30:04.034Z,18.20
2018-09-19T00:32:32.246Z,18.20
2018-09-19T00:35:00.527Z,18.20
2018-09-19T00:37:28.732Z,18.20
2018-09-19T00:39:57.001Z,18.20
2018-09-19T00:42:25.208Z,18.20
2018-09-19T00:44:53.494Z,18.20
2018-09-19T00:47:22.491Z,18.10
2018-09-19T00:49:50.716Z,18.10
2018-09-19T00:52:18.918Z,18.10
2018-09-19T00:54:47.206Z,18.10
2018-09-19T00:57:16.210Z,18.10
2018-09-19T00:59:44.459Z,18.10
2018-09-19T01:02:12.664Z,18.10
2018-09-19T01:04:40.910Z,18.10
2018-09-19T01:07:09.177Z,18.10
2018-09-19T01:09:37.389Z,18.10
2018-09-19T01:12:05.617Z,18.10
2018-09-19T01:14:33.873Z,18.10
2018-09-19T01:17:02.161Z,18.10
2018-09-19T01:19:30.397Z,18.10
2018-09-19T01:21:59.391Z,18.10
2018-09-19T01:24:27.607Z,18.00
2018-09-19T01:26:55.843Z,18.10
2018-09-19T01:29:24.135Z,18.10
2018-09-19T01:31:53.067Z,18.10
2018-09-19T01:34:26.328Z,18.10
2018-09-19T01:36:54.546Z,18.10
2018-09-19T01:39:22.827Z,18.10
2018-09-19T01:41:51.038Z,18.10
2018-09-19T01:44:19.303Z,18.10
2018-09-19T01:46:47.499Z,18.10
2018-09-19T01:49:15.729Z,18.10
2018-09-19T01:51:43.997Z,18.10
2018-09-19T01:54:12.213Z,18.10
2018-09-19T01:56:40.465Z,18.10
2018-09-19T01:59:08.727Z,18.10
2018-09-19T02:01:36.970Z,18.10
2018-09-19T02:04:05.241Z,18.10
2018-09-19T02:06:33.449Z,18.10
2018-09-19T02:09:01.677Z,18.10
2018-09-19T02:11:29.932Z,18.10
2018-09-19T02:13:58.948Z,18.10
2018-09-19T02:16:27.172Z,18.10
2018-09-19T02:18:55.375Z,18.10
2018-09-19T02:21:24.448Z,18.10
2018-09-19T02:23:52.678Z,18.10
2018-09-19T02:26:20.952Z,18.00
2018-09-19T02:28:49.233Z,18.00
2018-09-19T02:31:18.277Z,18.10
2018-09-19T02:33:46.523Z,18.10
2018-09-19T02:36:14.767Z,18.10
2018-09-19T02:38:42.981Z,18.20
2018-09-19T02:41:11.237Z,18.20
2018-09-19T02:43:39.463Z,18.20
2018-09-19T02:46:07.719Z,18.30
2018-09-19T02:48:35.969Z,18.30
2018-09-19T02:51:04.134Z,18.30
2018-09-19T02:53:32.345Z,18.40
2018-09-19T02:56:00.565Z,18.40
2018-09-19T02:58:29.573Z,18.50
2018-09-19T03:00:57.806Z,18.50
2018-09-19T03:03:26.068Z,18.50
2018-09-19T03:05:54.313Z,18.50
2018-09-19T03:08:22.528Z,18.50
2018-09-19T03:10:50.753Z,18.50
2018-09-19T03:13:18.976Z,18.60
2018-09-19T03:15:47.213Z,18.60
2018-09-19T03:18:15.434Z,18.60
2018-09-19T03:20:43.726Z,18.60
2018-09-19T03:23:11.972Z,18.50
2018-09-19T03:25:40.246Z,18.50
2018-09-19T03:30:40.863Z,18.50
2018-09-19T03:33:09.104Z,18.60
2018-09-19T03:35:37.336Z,18.60
2018-09-19T03:38:05.568Z,18.60
2018-09-19T03:40:33.832Z,18.70
2018-09-19T03:43:02.084Z,18.70
2018-09-19T03:45:30.304Z,18.70
2018-09-19T03:47:59.341Z,18.70
2018-09-19T03:50:27.582Z,18.60
2018-09-19T03:52:55.793Z,18.70
2018-09-19T03:55:24.056Z,18.70
2018-09-19T03:57:52.310Z,18.70
2018-09-19T04:00:21.368Z,18.80
2018-09-19T04:02:49.604Z,18.70
2018-09-19T04:05:17.861Z,18.80
2018-09-19T04:07:46.074Z,18.70
2018-09-19T04:10:14.317Z,18.60
2018-09-19T04:12:43.288Z,18.70
2018-09-19T04:15:11.517Z,18.70
2018-09-19T04:17:39.812Z,18.80
2018-09-19T04:20:08.047Z,18.90
2018-09-19T04:22:36.316Z,18.90
2018-09-19T04:25:05.305Z,18.90
2018-09-19T04:27:34.273Z,18.90
2018-09-19T04:30:02.569Z,18.90
2018-09-19T04:32:31.545Z,18.90
2018-09-19T04:34:59.819Z,18.90
2018-09-19T04:37:28.844Z,18.90
2018-09-19T04:39:57.119Z,18.90
2018-09-19T04:42:25.338Z,18.90
2018-09-19T04:44:53.569Z,18.90
2018-09-19T04:47:21.759Z,18.80
2018-09-19T04:49:49.997Z,18.80
2018-09-19T04:52:18.208Z,18.80
2018-09-19T04:54:46.465Z,18.80
2018-09-19T04:57:14.739Z,18.70
2018-09-19T04:59:42.976Z,18.70
2018-09-19T05:02:11.231Z,18.60
2018-09-19T05:04:39.437Z,18.60
2018-09-19T05:07:07.681Z,18.70
2018-09-19T05:09:36.643Z,18.80
2018-09-19T05:12:05.636Z,18.80
2018-09-19T05:14:33.855Z,18.80
2018-09-19T05:17:02.085Z,18.90
2018-09-19T05:19:30.304Z,18.80
2018-09-19T05:21:58.559Z,18.80
2018-09-19T05:27:18.886Z,18.90
2018-09-19T05:29:47.138Z,19.00
2018-09-19T05:32:15.402Z,19.00
2018-09-19T05:34:43.664Z,19.00
2018-09-19T05:37:12.691Z,19.00
2018-09-19T05:39:41.706Z,18.80
2018-09-19T05:42:09.942Z,18.80
2018-09-19T05:44:38.152Z,18.90
2018-09-19T05:47:06.418Z,18.80
2018-09-19T05:49:34.624Z,18.80
2018-09-19T05:52:02.846Z,18.80
2018-09-19T05:54:31.083Z,18.80
2018-09-19T05:56:59.332Z,18.80
2018-09-19T05:59:27.540Z,18.80
2018-09-19T06:01:55.799Z,18.80
2018-09-19T06:04:24.053Z,18.70
2018-09-19T06:06:53.028Z,18.70
2018-09-19T06:09:22.069Z,18.80
2018-09-19T06:11:50.278Z,18.70
2018-09-19T06:14:18.551Z,18.70
2018-09-19T06:16:46.770Z,18.70
2018-09-19T06:19:14.992Z,18.80
2018-09-19T06:21:43.206Z,18.70
2018-09-19T06:24:12.206Z,18.70
2018-09-19T06:26:41.185Z,18.80
2018-09-19T06:29:09.418Z,18.70
2018-09-19T06:31:37.623Z,18.80
2018-09-19T06:34:05.844Z,19.00
2018-09-19T06:36:34.104Z,19.00
2018-09-19T06:39:03.121Z,19.10
2018-09-19T06:41:32.119Z,19.10
2018-09-19T06:44:00.365Z,19.10
2018-09-19T06:46:29.397Z,19.20
2018-09-19T06:48:57.664Z,19.10
2018-09-19T06:51:25.849Z,19.20
2018-09-19T06:53:54.124Z,19.40
2018-09-19T06:56:22.384Z,19.40
2018-09-19T06:58:50.638Z,19.40
2018-09-19T07:01:18.915Z,19.40
2018-09-19T07:03:47.180Z,19.50
2018-09-19T07:06:15.439Z,19.50
2018-09-19T07:08:43.687Z,19.60
2018-09-19T07:11:11.990Z,19.80
2018-09-19T07:13:41.002Z,19.70
2018-09-19T07:16:09.265Z,19.70
2018-09-19T07:18:37.473Z,19.80
2018-09-19T07:21:06.470Z,20.00
2018-09-19T07:23:35.529Z,20.00
2018-09-19T07:26:03.788Z,19.90
2018-09-19T07:28:32.031Z,20.10
2018-09-19T07:31:01.078Z,20.30
2018-09-19T07:33:29.279Z,20.30
2018-09-19T07:35:57.555Z,20.40
2018-09-19T07:38:25.831Z,20.60
2018-09-19T07:40:54.102Z,20.60
2018-09-19T07:43:22.366Z,20.60
2018-09-19T07:45:50.625Z,20.70
2018-09-19T07:48:18.881Z,20.80
2018-09-19T07:50:47.135Z,20.90
2018-09-19T07:53:16.119Z,21.00
2018-09-19T07:55:45.149Z,21.10
2018-09-19T07:58:13.417Z,21.10
2018-09-19T08:00:42.476Z,21.40
2018-09-19T08:03:10.663Z,21.40
2018-09-19T08:05:39.693Z,21.70
2018-09-19T08:08:07.971Z,21.70
2018-09-19T08:10:36.244Z,21.90
2018-09-19T08:13:04.440Z,21.90
2018-09-19T08:15:32.727Z,22.00
2018-09-19T08:18:00.996Z,22.10
2018-09-19T08:20:29.246Z,22.10
2018-09-19T08:22:57.460Z,22.30
2018-09-19T08:25:26.310Z,22.30
2018-09-19T08:27:54.548Z,22.20
2018-09-19T08:30:22.834Z,22.10
2018-09-19T08:32:51.093Z,22.20
2018-09-19T08:35:19.294Z,22.10
2018-09-19T08:37:47.576Z,21.90
2018-09-19T08:40:15.806Z,21.80
2018-09-19T08:42:44.032Z,21.90
2018-09-19T08:45:12.314Z,22.10
2018-09-19T08:47:41.353Z,22.30
2018-09-19T08:50:09.575Z,22.30
2018-09-19T08:52:38.618Z,22.20
2018-09-19T08:55:06.893Z,22.20
2018-09-19T08:57:35.166Z,22.30
2018-09-19T09:00:03.378Z,22.30
2018-09-19T09:02:31.606Z,22.40
2018-09-19T09:04:59.845Z,22.40
2018-09-19T09:07:28.818Z,22.70
2018-09-19T09:09:57.090Z,22.60
2018-09-19T09:12:25.408Z,22.70
2018-09-19T09:14:53.646Z,22.70
2018-09-19T09:17:21.848Z,22.50
2018-09-19T09:19:50.897Z,22.40
2018-09-19T09:22:19.169Z,22.40
2018-09-19T09:24:47.432Z,22.30
2018-09-19T09:27:15.720Z,22.30
2018-09-19T09:29:43.940Z,22.20
2018-09-19T09:32:12.173Z,22.20
2018-09-19T09:34:40.386Z,22.30
2018-09-19T09:37:08.638Z,22.50
2018-09-19T09:39:36.840Z,22.60
2018-09-19T09:42:05.084Z,22.50
2018-09-19T09:44:33.317Z,22.40
2018-09-19T09:47:02.333Z,22.40
2018-09-19T09:49:30.637Z,22.40
2018-09-19T09:51:58.849Z,22.30
2018-09-19T09:54:27.131Z,22.50
2018-09-19T09:56:55.379Z,22.70
2018-09-19T09:59:23.652Z,22.60
2018-09-19T10:01:51.888Z,22.40
2018-09-19T10:04:20.904Z,22.30
2018-09-19T10:06:49.130Z,22.30
2018-09-19T10:09:18.152Z,22.50
2018-09-19T10:11:47.403Z,22.50
2018-09-19T10:14:15.643Z,22.60
2018-09-19T10:16:43.909Z,22.70
2018-09-19T10:19:12.119Z,22.70
2018-09-19T10:21:40.357Z,22.70
2018-09-19T10:24:08.605Z,22.90
2018-09-19T10:26:36.804Z,23.00
2018-09-19T10:29:05.076Z,23.30
2018-09-19T10:31:34.040Z,23.20
2018-09-19T10:34:02.327Z,23.20
2018-09-19T10:36:31.335Z,23.30
2018-09-19T10:39:00.360Z,23.40
2018-09-19T10:41:28.573Z,23.40
2018-09-19T10:43:56.863Z,23.20
2018-09-19T10:46:25.022Z,23.20
2018-09-19T10:48:53.242Z,23.10
2018-09-19T10:51:21.524Z,23.20
2018-09-19T10:53:50.529Z,23.00
2018-09-19T10:56:18.803Z,23.00
2018-09-19T10:58:47.770Z,23.00
2018-09-19T11:01:16.763Z,23.20
2018-09-19T11:03:44.982Z,23.20
2018-09-19T11:06:13.229Z,23.60
2018-09-19T11:08:41.509Z,23.80
2018-09-19T11:11:09.755Z,24.20
2018-09-19T11:13:38.019Z,24.60
2018-09-19T11:16:06.235Z,24.90
2018-09-19T11:18:35.293Z,25.50
2018-09-19T11:21:03.781Z,25.40
2018-09-19T11:23:32.003Z,25.70
2018-09-19T11:26:00.249Z,26.20
2018-09-19T11:28:28.487Z,26.40
2018-09-19T11:30:57.209Z,26.50
2018-09-19T11:33:25.459Z,26.70
2018-09-19T11:35:53.705Z,27.10
2018-09-19T11:38:21.915Z,27.20
2018-09-19T11:40:50.156Z,27.30
2018-09-19T11:43:19.088Z,27.40
2018-09-19T11:45:47.334Z,27.30
2018-09-19T11:48:15.548Z,27.60
2018-09-19T11:50:43.752Z,27.60
2018-09-19T11:53:12.746Z,28.40
2018-09-19T11:55:40.988Z,28.30
2018-09-19T11:58:09.221Z,28.70
2018-09-19T12:00:37.472Z,29.10
2018-09-19T12:03:06.509Z,29.50
2018-09-19T12:05:34.709Z,29.50
2018-09-19T12:08:02.979Z,29.70
2018-09-19T12:10:31.238Z,29.70
2018-09-19T12:12:59.469Z,29.80
2018-09-19T12:15:28.510Z,30.00
2018-09-19T12:17:56.779Z,30.00
2018-09-19T12:20:25.043Z,30.20
2018-09-19T12:22:53.243Z,30.30
2018-09-19T12:25:22.289Z,30.70
2018-09-19T12:27:51.282Z,30.90
2018-09-19T12:30:19.497Z,30.80
2018-09-19T12:32:47.756Z,31.10
2018-09-19T12:35:16.035Z,31.10
2018-09-19T12:37:44.302Z,31.10
2018-09-19T12:40:13.323Z,31.20
2018-09-19T12:42:41.587Z,31.20
2018-09-19T12:45:09.802Z,31.40
2018-09-19T12:47:38.029Z,31.40
2018-09-19T12:50:06.299Z,31.60
2018-09-19T12:52:34.892Z,31.70
2018-09-19T12:55:03.133Z,31.80
2018-09-19T12:57:31.367Z,31.90
2018-09-19T12:59:59.574Z,32.00
2018-09-19T13:02:27.823Z,32.20
2018-09-19T13:04:56.081Z,32.40
2018-09-19T13:07:24.339Z,32.50
2018-09-19T13:09:53.346Z,32.90
2018-09-19T13:12:21.552Z,32.90
2018-09-19T13:14:49.854Z,33.10
2018-09-19T13:17:18.062Z,33.20
2018-09-19T13:19:46.322Z,33.30
2018-09-19T13:22:15.484Z,33.30
2018-09-19T13:24:43.751Z,33.20
2018-09-19T13:27:11.971Z,33.30
2018-09-19T13:29:40.212Z,33.30
2018-09-19T13:32:08.435Z,33.40
2018-09-19T13:34:36.657Z,33.40
2018-09-19T13:37:04.894Z,33.20
2018-09-19T13:39:33.911Z,33.40
2018-09-19T13:42:02.177Z,33.40
2018-09-19T13:44:31.178Z,33.60
2018-09-19T13:46:59.450Z,33.60
2018-09-19T13:49:27.710Z,33.60
2018-09-19T13:51:56.752Z,33.40
2018-09-19T13:54:24.974Z,33.40
2018-09-19T13:56:54.006Z,33.30
2018-09-19T13:59:22.366Z,33.30
2018-09-19T14:01:51.389Z,33.20
2018-09-19T14:04:19.690Z,33.20
2018-09-19T14:06:47.892Z,33.10
2018-09-19T14:09:16.257Z,33.00
2018-09-19T14:11:44.549Z,32.70
2018-09-19T14:14:12.726Z,32.50
2018-09-19T14:16:41.030Z,32.50
2018-09-19T14:19:10.033Z,32.10
2018-09-19T14:21:38.272Z,32.00
2018-09-19T14:24:06.493Z,31.90
2018-09-19T14:26:34.728Z,31.80
2018-09-19T14:29:03.754Z,31.50
2018-09-19T14:31:32.042Z,31.40
2018-09-19T14:34:01.536Z,31.30
2018-09-19T14:36:29.743Z,31.20
2018-09-19T14:38:58.027Z,31.00
2018-09-19T14:41:26.270Z,31.00
2018-09-19T14:43:54.510Z,30.80
2018-09-19T14:46:22.733Z,30.60
2018-09-19T14:48:50.971Z,30.50
2018-09-19T14:51:19.214Z,30.40
2018-09-19T14:53:47.474Z,30.20
2018-09-19T14:56:15.727Z,30.20
2018-09-19T14:58:43.980Z,30.00
2018-09-19T15:01:12.980Z,29.80
2018-09-19T15:03:41.966Z,29.70
2018-09-19T15:06:10.989Z,29.70
2018-09-19T15:08:39.236Z,29.70
2018-09-19T15:11:08.214Z,30.10
2018-09-19T15:13:36.449Z,30.10
2018-09-19T15:16:04.680Z,30.40
2018-09-19T15:18:33.670Z,31.20
2018-09-19T15:21:02.706Z,31.60
2018-09-19T15:23:30.956Z,31.60
2018-09-19T15:25:59.976Z,32.50
2018-09-19T15:28:28.229Z,32.50
2018-09-19T15:30:57.197Z,32.40
2018-09-19T15:33:25.462Z,32.50
2018-09-19T15:35:53.692Z,32.40
2018-09-19T15:38:22.027Z,32.00
2018-09-19T15:40:50.997Z,31.80
2018-09-19T15:43:19.989Z,31.50
2018-09-19T15:45:49.027Z,31.20
2018-09-19T15:48:18.080Z,31.10
2018-09-19T15:50:46.292Z,31.00
2018-09-19T15:53:14.501Z,30.70
2018-09-19T15:55:42.752Z,30.50
2018-09-19T15:58:11.733Z,30.00
2018-09-19T16:00:40.008Z,30.00
2018-09-19T16:03:08.255Z,29.90
2018-09-19T16:05:36.483Z,29.70
2018-09-19T16:08:05.479Z,29.40
2018-09-19T16:10:33.743Z,29.30
2018-09-19T16:13:02.040Z,29.20
2018-09-19T16:15:31.065Z,28.80
2018-09-19T16:17:59.289Z,28.70
2018-09-19T16:20:27.524Z,28.50
2018-09-19T16:22:55.744Z,28.30
2018-09-19T16:25:24.744Z,28.00
2018-09-19T16:27:53.731Z,27.70
2018-09-19T16:30:21.964Z,27.70
2018-09-19T16:32:50.223Z,27.70
2018-09-19T16:35:18.453Z,27.40
2018-09-19T16:37:46.667Z,27.40
2018-09-19T16:40:14.943Z,27.50
2018-09-19T16:42:43.177Z,27.50
2018-09-19T16:45:11.441Z,27.50
2018-09-19T16:47:39.660Z,27.40
2018-09-19T16:50:07.888Z,27.30
2018-09-19T16:52:36.166Z,27.30
2018-09-19T16:55:04.411Z,27.30
2018-09-19T16:57:32.653Z,27.20
2018-09-19T17:00:00.901Z,27.10
2018-09-19T17:02:29.123Z,27.00
2018-09-19T17:04:57.352Z,26.90
2018-09-19T17:07:25.634Z,26.80
2018-09-19T17:09:53.882Z,26.60
2018-09-19T17:12:22.160Z,26.60
2018-09-19T17:14:50.366Z,26.50
2018-09-19T17:17:18.617Z,26.50
2018-09-19T17:19:46.900Z,26.50
2018-09-19T17:22:15.132Z,26.40
2018-09-19T17:24:44.120Z,26.20
2018-09-19T17:27:13.109Z,26.10
2018-09-19T17:29:41.388Z,26.00
2018-09-19T17:32:09.582Z,25.80
2018-09-19T17:34:37.832Z,25.70
2018-09-19T17:37:06.084Z,25.50
2018-09-19T17:39:34.332Z,25.50
2018-09-19T17:42:02.576Z,25.30
2018-09-19T17:44:31.641Z,25.20
2018-09-19T17:46:59.903Z,25.10
2018-09-19T17:49:28.117Z,25.10
2018-09-19T17:51:57.152Z,24.80
2018-09-19T17:54:25.570Z,24.80
2018-09-19T17:56:53.801Z,24.60
2018-09-19T17:59:22.016Z,24.60
2018-09-19T18:01:50.256Z,24.60
2018-09-19T18:04:18.477Z,24.60
2018-09-19T18:06:46.733Z,24.60
2018-09-19T18:09:14.958Z,24.40
2018-09-19T18:11:43.928Z,24.30
2018-09-19T18:14:12.173Z,24.30
2018-09-19T18:16:40.398Z,24.30
2018-09-19T18:19:09.447Z,24.10
2018-09-19T18:21:37.694Z,24.00
2018-09-19T18:24:05.962Z,24.00
2018-09-19T18:26:34.963Z,23.90
2018-09-19T18:29:03.228Z,23.90
2018-09-19T18:31:32.262Z,23.80
2018-09-19T18:34:00.535Z,23.80
2018-09-19T18:36:28.751Z,23.80
2018-09-19T18:38:56.984Z,23.70
2018-09-19T18:41:25.248Z,23.50
2018-09-19T18:43:53.496Z,23.50
2018-09-19T18:46:22.499Z,23.40
2018-09-19T18:48:50.724Z,23.40
2018-09-19T18:51:19.009Z,23.40
2018-09-19T18:53:47.235Z,23.30
2018-09-19T18:56:15.503Z,23.30
2018-09-19T18:58:44.556Z,23.20
2018-09-19T19:01:12.765Z,23.20
2018-09-19T19:03:41.765Z,23.10
2018-09-19T19:06:10.749Z,23.10
2018-09-19T19:08:39.762Z,23.00
2018-09-19T19:11:08.020Z,23.10
2018-09-19T19:13:36.242Z,23.00
2018-09-19T19:16:04.550Z,22.90
2018-09-19T19:18:32.799Z,22.90
2018-09-19T19:21:01.804Z,22.90
2018-09-19T19:23:30.020Z,22.80
2018-09-19T19:25:58.266Z,22.80
2018-09-19T19:28:26.479Z,22.70
2018-09-19T19:30:55.496Z,22.70
2018-09-19T19:33:23.703Z,22.70
2018-09-19T19:35:51.929Z,22.80
2018-09-19T19:38:20.922Z,22.70
2018-09-19T19:40:49.943Z,22.80
2018-09-19T19:43:18.193Z,22.70
2018-09-19T19:45:47.348Z,22.70
2018-09-19T19:48:15.626Z,22.70
2018-09-19T19:50:43.828Z,22.70
2018-09-19T19:53:12.138Z,22.70
2018-09-19T19:55:40.357Z,22.70
2018-09-19T19:58:08.579Z,22.70
2018-09-19T20:00:37.597Z,22.60
2018-09-19T20:03:05.823Z,22.60
2018-09-19T20:05:34.089Z,22.60
2018-09-19T20:08:02.318Z,22.60
2018-09-19T20:10:30.586Z,22.50
2018-09-19T20:12:58.799Z,22.50
2018-09-19T20:15:27.014Z,22.40
2018-09-19T20:17:55.992Z,22.30
2018-09-19T20:20:24.268Z,22.30
2018-09-19T20:22:52.577Z,22.30
2018-09-19T20:25:21.626Z,22.10
2018-09-19T20:27:49.872Z,22.10
2018-09-19T20:30:18.134Z,22.00
2018-09-19T20:32:47.151Z,21.90
2018-09-19T20:35:15.410Z,21.90
2018-09-19T20:37:43.672Z,21.80
2018-09-19T20:40:12.701Z,21.70
2018-09-19T20:42:41.647Z,21.60
2018-09-19T20:45:09.880Z,21.60
2018-09-19T20:47:38.139Z,21.60
2018-09-19T20:50:06.368Z,21.50
2018-09-19T20:52:34.618Z,21.50
2018-09-19T20:55:02.883Z,21.40
2018-09-19T20:57:31.131Z,21.40
2018-09-19T21:00:00.169Z,21.30
2018-09-19T21:02:29.136Z,21.30
2018-09-19T21:04:57.349Z,21.30
2018-09-19T21:07:25.629Z,21.20
2018-09-19T21:09:53.883Z,21.20
2018-09-19T21:12:22.147Z,21.10
2018-09-19T21:14:50.389Z,21.10
2018-09-19T21:17:19.415Z,21.00
2018-09-19T21:19:47.629Z,21.00
2018-09-19T21:22:16.127Z,21.00
2018-09-19T21:24:44.131Z,21.00
2018-09-19T21:27:12.355Z,20.90
2018-09-19T21:29:40.631Z,20.90
2018-09-19T21:32:08.892Z,20.80
2018-09-19T21:34:37.845Z,20.70
2018-09-19T21:37:06.868Z,20.70
2018-09-19T21:39:35.143Z,20.70
2018-09-19T21:42:03.397Z,20.60
2018-09-19T21:44:32.390Z,20.40
2018-09-19T21:47:00.624Z,20.30
2018-09-19T21:49:28.840Z,20.30
2018-09-19T21:51:57.812Z,20.20
2018-09-19T21:54:26.094Z,20.20
2018-09-19T21:56:54.305Z,20.20
2018-09-19T21:59:22.546Z,20.20
2018-09-19T22:01:51.560Z,20.20
2018-09-19T22:04:20.544Z,20.20
2018-09-19T22:06:49.568Z,20.20
2018-09-19T22:09:17.816Z,20.10
2018-09-19T22:11:46.008Z,20.20
2018-09-19T22:14:14.236Z,20.20
2018-09-19T22:16:42.454Z,20.20
2018-09-19T22:19:10.701Z,20.10
2018-09-19T22:21:38.968Z,20.10
2018-09-19T22:24:07.239Z,20.10
2018-09-19T22:26:35.506Z,20.10
2018-09-19T22:29:03.766Z,20.10
2018-09-19T22:31:32.003Z,20.10
2018-09-19T22:34:00.967Z,20.00
2018-09-19T22:36:29.203Z,20.00
2018-09-19T22:38:57.434Z,20.00
2018-09-19T22:41:25.706Z,20.00
2018-09-19T22:43:53.927Z,19.90
2018-09-19T22:46:22.143Z,19.90
2018-09-19T22:48:50.381Z,19.90
2018-09-19T22:51:18.601Z,19.80
2018-09-19T22:53:46.827Z,19.80
2018-09-19T22:56:15.027Z,19.80
2018-09-19T22:58:43.261Z,19.80
2018-09-19T23:01:12.241Z,19.70
2018-09-19T23:03:41.252Z,19.60
2018-09-19T23:06:10.276Z,19.60
2018-09-19T23:08:38.490Z,19.60
2018-09-19T23:11:06.758Z,19.50
2018-09-19T23:13:34.965Z,19.50
2018-09-19T23:16:03.991Z,19.40
2018-09-19T23:18:32.199Z,19.40
2018-09-19T23:21:00.430Z,19.40
2018-09-19T23:23:28.682Z,19.40
2018-09-19T23:25:56.951Z,19.30
2018-09-19T23:28:25.214Z,19.30
2018-09-19T23:30:53.466Z,19.30
2018-09-19T23:33:21.711Z,19.20
2018-09-19T23:35:49.970Z,19.20
2018-09-19T23:38:18.985Z,19.10
2018-09-19T23:40:47.261Z,19.10
2018-09-19T23:43:16.231Z,19.00
2018-09-19T23:45:45.234Z,18.90
2018-09-19T23:48:13.443Z,18.90
2018-09-19T23:50:41.709Z,18.90
2018-09-19T23:53:09.920Z,18.80
2018-09-19T23:55:38.171Z,18.80
2018-09-19T23:58:06.420Z,18.80
